sensor_id;sensor_type;location;lat;lon;timestamp;pressure;altitude;pressure_sealevel;temperature;humidity
24230;BME280;12362;50.004;8.006;2023-05-08T00:00:24;100920.03;;;16.24;100.00
24230;BME280;12362;50.004;8.006;2023-05-08T00:02:50;100918.47;;;16.21;100.00
24230;BME280;12362;50.004;8.006;2023-05-08T00:05:15;100927.03;;;16.23;100.00
24230;BME280;12362;50.004;8.006;2023-05-08T00:07:41;100928.84;;;16.23;100.00
24230;BME280;12362;50.004;8.006;2023-05-08T00:10:08;100923.41;;;16.26;100.00
24230;BME280;12362;50.004;8.006;2023-05-08T00:12:34;100926.69;;;16.29;100.00
24230;BME280;12362;50.004;8.006;2023-05-08T00:15:01;100923.41;;;16.26;100.00
24230;BME280;12362;50.004;8.006;2023-05-08T00:17:27;100917.91;;;16.30;100.00
24230;BME280;12362;50.004;8.006;2023-05-08T00:19:53;100913.75;;;16.26;100.00
24230;BME280;12362;50.004;8.006;2023-05-08T00:22:19;100917.81;;;16.32;100.00
24230;BME280;12362;50.004;8.006;2023-05-08T00:24:44;100914.34;;;16.31;100.00
24230;BME280;12362;50.004;8.006;2023-05-08T00:27:10;100916.03;;;16.32;100.00
24230;BME280;12362;50.004;8.006;2023-05-08T00:29:36;100919.41;;;16.34;100.00
24230;BME280;12362;50.004;8.006;2023-05-08T00:32:05;100925.00;;;16.28;100.00
24230;BME280;12362;50.004;8.006;2023-05-08T00:34:34;100924.44;;;16.23;100.00
24230;BME280;12362;50.004;8.006;2023-05-08T00:37:00;100920.78;;;16.26;100.00
24230;BME280;12362;50.004;8.006;2023-05-08T00:39:27;100918.47;;;16.21;100.00
24230;BME280;12362;50.004;8.006;2023-05-08T00:41:52;100923.41;;;16.26;100.00
24230;BME280;12362;50.004;8.006;2023-05-08T00:44:18;100917.03;;;16.30;100.00
24230;BME280;12362;50.004;8.006;2023-05-08T00:46:44;100923.31;;;16.27;100.00
24230;BME280;12362;50.004;8.006;2023-05-08T00:49:11;100919.84;;;16.27;100.00
24230;BME280;12362;50.004;8.006;2023-05-08T00:51:43;100922.78;;;16.22;100.00
24230;BME280;12362;50.004;8.006;2023-05-08T00:54:10;100920.22;;;16.21;100.00
24230;BME280;12362;50.004;8.006;2023-05-08T00:56:36;100918.72;;;16.17;100.00
24230;BME280;12362;50.004;8.006;2023-05-08T00:59:03;100924.09;;;16.15;100.00
24230;BME280;12362;50.004;8.006;2023-05-08T01:01:33;100929.88;;;16.20;100.00
24230;BME280;12362;50.004;8.006;2023-05-08T01:04:02;100931.16;;;16.27;100.00
24230;BME280;12362;50.004;8.006;2023-05-08T01:06:28;100925.13;;;16.13;100.00
24230;BME280;12362;50.004;8.006;2023-05-08T01:08:54;100922.59;;;16.11;100.00
24230;BME280;12362;50.004;8.006;2023-05-08T01:14:18;100929.34;;;16.01;100.00
24230;BME280;12362;50.004;8.006;2023-05-08T01:17:27;100926.72;;;16.01;100.00
24230;BME280;12362;50.004;8.006;2023-05-08T01:19:57;100922.81;;;15.94;100.00
24230;BME280;12362;50.004;8.006;2023-05-08T01:32:02;100934.03;;;15.96;100.00
24230;BME280;12362;50.004;8.006;2023-05-08T01:34:31;100940.69;;;16.02;100.00
24230;BME280;12362;50.004;8.006;2023-05-08T01:37:11;100934.69;;;16.00;100.00
24230;BME280;12362;50.004;8.006;2023-05-08T01:42:49;100938.97;;;16.15;100.00
24230;BME280;12362;50.004;8.006;2023-05-08T01:45:31;100939.06;;;16.13;100.00
24230;BME280;12362;50.004;8.006;2023-05-08T01:48:08;100938.69;;;16.05;100.00
24230;BME280;12362;50.004;8.006;2023-05-08T01:50:51;100949.53;;;15.99;100.00
24230;BME280;12362;50.004;8.006;2023-05-08T01:53:23;100948.13;;;16.08;100.00
24230;BME280;12362;50.004;8.006;2023-05-08T01:55:53;100950.28;;;16.01;100.00
24230;BME280;12362;50.004;8.006;2023-05-08T01:58:20;100950.59;;;15.97;100.00
24230;BME280;12362;50.004;8.006;2023-05-08T02:00:48;100959.19;;;15.99;100.00
24230;BME280;12362;50.004;8.006;2023-05-08T02:03:15;100956.41;;;16.02;100.00
24230;BME280;12362;50.004;8.006;2023-05-08T02:05:42;100959.56;;;15.93;100.00
24230;BME280;12362;50.004;8.006;2023-05-08T02:08:12;100960.88;;;16.00;100.00
24230;BME280;12362;50.004;8.006;2023-05-08T02:10:40;100957.22;;;16.02;100.00
24230;BME280;12362;50.004;8.006;2023-05-08T02:13:09;100956.94;;;16.07;100.00
24230;BME280;12362;50.004;8.006;2023-05-08T02:15:35;100965.94;;;16.03;100.00
24230;BME280;12362;50.004;8.006;2023-05-08T02:18:07;100967.88;;;15.99;100.00
24230;BME280;12362;50.004;8.006;2023-05-08T02:20:34;100968.56;;;16.03;100.00
24230;BME280;12362;50.004;8.006;2023-05-08T02:23:01;100966.31;;;15.97;100.00
24230;BME280;12362;50.004;8.006;2023-05-08T02:25:28;100978.34;;;15.99;100.00
24230;BME280;12362;50.004;8.006;2023-05-08T02:27:55;100973.88;;;16.01;100.00
24230;BME280;12362;50.004;8.006;2023-05-08T02:30:24;100969.09;;;15.94;100.00
24230;BME280;12362;50.004;8.006;2023-05-08T02:32:51;100982.88;;;15.97;100.00
24230;BME280;12362;50.004;8.006;2023-05-08T02:35:19;100975.19;;;15.94;100.00
24230;BME280;12362;50.004;8.006;2023-05-08T02:37:52;100979.31;;;15.98;100.00
24230;BME280;12362;50.004;8.006;2023-05-08T02:40:19;100976.72;;;15.98;100.00
24230;BME280;12362;50.004;8.006;2023-05-08T02:42:46;100985.28;;;16.00;100.00
24230;BME280;12362;50.004;8.006;2023-05-08T02:45:13;100986.03;;;15.88;100.00
24230;BME280;12362;50.004;8.006;2023-05-08T02:50:28;100990.63;;;15.99;100.00
24230;BME280;12362;50.004;8.006;2023-05-08T02:53:02;100993.72;;;15.91;100.00
24230;BME280;12362;50.004;8.006;2023-05-08T02:55:34;100989.13;;;15.95;100.00
24230;BME280;12362;50.004;8.006;2023-05-08T02:58:10;100985.22;;;15.88;100.00
24230;BME280;12362;50.004;8.006;2023-05-08T03:00:55;100991.00;;;15.65;100.00
24230;BME280;12362;50.004;8.006;2023-05-08T03:03:25;100990.63;;;15.57;100.00
24230;BME280;12362;50.004;8.006;2023-05-08T03:05:56;100990.03;;;15.52;100.00
24230;BME280;12362;50.004;8.006;2023-05-08T03:08:34;100986.66;;;15.50;100.00
24230;BME280;12362;50.004;8.006;2023-05-08T03:11:04;100988.84;;;15.57;100.00
24230;BME280;12362;50.004;8.006;2023-05-08T03:13:33;100991.88;;;15.36;100.00
24230;BME280;12362;50.004;8.006;2023-05-08T03:16:02;100990.44;;;15.31;100.00
24230;BME280;12362;50.004;8.006;2023-05-08T03:18:35;100994.59;;;15.35;100.00
24230;BME280;12362;50.004;8.006;2023-05-08T03:21:04;100991.03;;;15.36;100.00
24230;BME280;12362;50.004;8.006;2023-05-08T03:23:32;100995.25;;;15.23;100.00
24230;BME280;12362;50.004;8.006;2023-05-08T03:26:01;100992.53;;;15.24;100.00
24230;BME280;12362;50.004;8.006;2023-05-08T03:28:27;100991.66;;;15.25;100.00
24230;BME280;12362;50.004;8.006;2023-05-08T03:30:57;100992.34;;;15.13;100.00
24230;BME280;12362;50.004;8.006;2023-05-08T03:33:24;100988.50;;;15.19;100.00
24230;BME280;12362;50.004;8.006;2023-05-08T03:35:52;100991.50;;;15.13;100.00
24230;BME280;12362;50.004;8.006;2023-05-08T03:38:18;100994.66;;;15.04;100.00
24230;BME280;12362;50.004;8.006;2023-05-08T03:40:44;100996.13;;;15.08;100.00
24230;BME280;12362;50.004;8.006;2023-05-08T03:43:11;100999.13;;;15.02;100.00
24230;BME280;12362;50.004;8.006;2023-05-08T03:45:39;100991.34;;;15.00;100.00
24230;BME280;12362;50.004;8.006;2023-05-08T03:48:06;100987.03;;;14.99;100.00
24230;BME280;12362;50.004;8.006;2023-05-08T03:50:34;100990.13;;;14.92;100.00
24230;BME280;12362;50.004;8.006;2023-05-08T03:53:00;100982.94;;;14.95;100.00
24230;BME280;12362;50.004;8.006;2023-05-08T03:55:26;100983.16;;;15.06;100.00
24230;BME280;12362;50.004;8.006;2023-05-08T03:58:20;100985.88;;;14.89;100.00
24230;BME280;12362;50.004;8.006;2023-05-08T04:03:22;100981.19;;;14.80;100.00
24230;BME280;12362;50.004;8.006;2023-05-08T04:06:13;100985.13;;;14.87;100.00
24230;BME280;12362;50.004;8.006;2023-05-08T04:09:07;100992.75;;;14.92;100.00
24230;BME280;12362;50.004;8.006;2023-05-08T04:14:23;100983.44;;;14.86;100.00
24230;BME280;12362;50.004;8.006;2023-05-08T04:17:05;100994.50;;;14.91;100.00
24230;BME280;12362;50.004;8.006;2023-05-08T04:19:37;100996.13;;;14.78;100.00
24230;BME280;12362;50.004;8.006;2023-05-08T04:22:06;100999.22;;;14.85;100.00
24230;BME280;12362;50.004;8.006;2023-05-08T04:24:34;101003.09;;;14.93;100.00
24230;BME280;12362;50.004;8.006;2023-05-08T04:27:02;101011.38;;;14.86;100.00
24230;BME280;12362;50.004;8.006;2023-05-08T04:29:29;101010.09;;;14.93;100.00
24230;BME280;12362;50.004;8.006;2023-05-08T04:31:56;101006.91;;;14.88;100.00
24230;BME280;12362;50.004;8.006;2023-05-08T04:34:24;101013.31;;;14.82;100.00
24230;BME280;12362;50.004;8.006;2023-05-08T04:36:53;101012.66;;;14.79;100.00
24230;BME280;12362;50.004;8.006;2023-05-08T04:39:19;101015.28;;;14.79;100.00
24230;BME280;12362;50.004;8.006;2023-05-08T04:41:44;101012.88;;;14.74;100.00
24230;BME280;12362;50.004;8.006;2023-05-08T04:44:12;101024.31;;;14.73;100.00
24230;BME280;12362;50.004;8.006;2023-05-08T04:46:53;101031.53;;;14.68;100.00
24230;BME280;12362;50.004;8.006;2023-05-08T04:49:19;101029.84;;;14.67;100.00
24230;BME280;12362;50.004;8.006;2023-05-08T04:51:45;101031.97;;;14.61;100.00
24230;BME280;12362;50.004;8.006;2023-05-08T04:54:10;101035.09;;;14.52;100.00
24230;BME280;12362;50.004;8.006;2023-05-08T04:56:36;101038.28;;;14.57;100.00
24230;BME280;12362;50.004;8.006;2023-05-08T04:59:01;101038.22;;;14.58;100.00
24230;BME280;12362;50.004;8.006;2023-05-08T05:01:27;101039.81;;;14.61;100.00
24230;BME280;12362;50.004;8.006;2023-05-08T05:03:53;101046.06;;;14.58;100.00
24230;BME280;12362;50.004;8.006;2023-05-08T05:06:18;101051.34;;;14.57;100.00
24230;BME280;12362;50.004;8.006;2023-05-08T05:08:44;101044.88;;;14.64;100.00
24230;BME280;12362;50.004;8.006;2023-05-08T05:11:09;101050.44;;;14.73;100.00
24230;BME280;12362;50.004;8.006;2023-05-08T05:13:36;101056.00;;;14.67;100.00
24230;BME280;12362;50.004;8.006;2023-05-08T05:16:01;101059.69;;;14.63;100.00
24230;BME280;12362;50.004;8.006;2023-05-08T05:18:27;101057.75;;;14.52;100.00
24230;BME280;12362;50.004;8.006;2023-05-08T05:20:56;101056.66;;;14.55;100.00
24230;BME280;12362;50.004;8.006;2023-05-08T05:23:22;101056.75;;;14.69;100.00
24230;BME280;12362;50.004;8.006;2023-05-08T05:25:48;101055.84;;;14.55;100.00
24230;BME280;12362;50.004;8.006;2023-05-08T05:28:13;101060.81;;;14.75;100.00
24230;BME280;12362;50.004;8.006;2023-05-08T05:30:39;101062.00;;;14.69;100.00
24230;BME280;12362;50.004;8.006;2023-05-08T05:33:04;101064.34;;;14.58;100.00
24230;BME280;12362;50.004;8.006;2023-05-08T05:35:30;101064.59;;;14.54;100.00
24230;BME280;12362;50.004;8.006;2023-05-08T05:37:56;101073.53;;;14.50;100.00
24230;BME280;12362;50.004;8.006;2023-05-08T05:40:21;101073.09;;;14.42;100.00
24230;BME280;12362;50.004;8.006;2023-05-08T05:42:48;101072.91;;;14.45;100.00
24230;BME280;12362;50.004;8.006;2023-05-08T05:45:40;101082.44;;;14.46;100.00
24230;BME280;12362;50.004;8.006;2023-05-08T05:48:05;101074.53;;;14.48;100.00
24230;BME280;12362;50.004;8.006;2023-05-08T05:50:32;101077.47;;;14.42;100.00
24230;BME280;12362;50.004;8.006;2023-05-08T05:52:58;101075.38;;;14.63;100.00
24230;BME280;12362;50.004;8.006;2023-05-08T05:55:25;101078.03;;;14.79;100.00
24230;BME280;12362;50.004;8.006;2023-05-08T05:57:51;101071.50;;;14.86;100.00
24230;BME280;12362;50.004;8.006;2023-05-08T06:00:17;101074.28;;;14.98;100.00
24230;BME280;12362;50.004;8.006;2023-05-08T06:02:49;101071.56;;;15.15;100.00
24230;BME280;12362;50.004;8.006;2023-05-08T06:05:15;101074.72;;;15.06;100.00
24230;BME280;12362;50.004;8.006;2023-05-08T06:07:43;101076.50;;;14.90;100.00
24230;BME280;12362;50.004;8.006;2023-05-08T06:10:09;101074.13;;;15.01;100.00
24230;BME280;12362;50.004;8.006;2023-05-08T06:12:35;101081.16;;;14.85;100.00
24230;BME280;12362;50.004;8.006;2023-05-08T06:18:10;101084.00;;;14.81;100.00
24230;BME280;12362;50.004;8.006;2023-05-08T06:20:37;101083.75;;;14.85;100.00
24230;BME280;12362;50.004;8.006;2023-05-08T06:23:03;101083.41;;;14.76;100.00
24230;BME280;12362;50.004;8.006;2023-05-08T06:25:28;101085.84;;;14.63;100.00
24230;BME280;12362;50.004;8.006;2023-05-08T06:27:55;101087.09;;;14.72;100.00
24230;BME280;12362;50.004;8.006;2023-05-08T06:30:21;101091.75;;;14.82;100.00
24230;BME280;12362;50.004;8.006;2023-05-08T06:32:47;101093.25;;;14.71;100.00
24230;BME280;12362;50.004;8.006;2023-05-08T06:35:12;101094.78;;;14.59;100.00
24230;BME280;12362;50.004;8.006;2023-05-08T06:37:43;101091.50;;;14.71;100.00
24230;BME280;12362;50.004;8.006;2023-05-08T06:40:09;101085.88;;;14.79;100.00
24230;BME280;12362;50.004;8.006;2023-05-08T06:42:34;101085.09;;;14.77;100.00
24230;BME280;12362;50.004;8.006;2023-05-08T06:45:19;101086.28;;;14.87;100.00
24230;BME280;12362;50.004;8.006;2023-05-08T06:47:44;101089.91;;;15.00;100.00
24230;BME280;12362;50.004;8.006;2023-05-08T06:50:10;101085.25;;;15.05;100.00
24230;BME280;12362;50.004;8.006;2023-05-08T06:52:35;101087.44;;;14.97;100.00
24230;BME280;12362;50.004;8.006;2023-05-08T06:55:01;101088.47;;;14.94;100.00
24230;BME280;12362;50.004;8.006;2023-05-08T06:57:26;101088.38;;;14.96;100.00
24230;BME280;12362;50.004;8.006;2023-05-08T06:59:55;101091.34;;;15.05;100.00
24230;BME280;12362;50.004;8.006;2023-05-08T07:02:20;101083.88;;;15.13;100.00
24230;BME280;12362;50.004;8.006;2023-05-08T07:04:46;101082.53;;;15.22;100.00
24230;BME280;12362;50.004;8.006;2023-05-08T07:07:11;101082.13;;;15.29;100.00
24230;BME280;12362;50.004;8.006;2023-05-08T07:09:38;101083.94;;;15.43;100.00
24230;BME280;12362;50.004;8.006;2023-05-08T07:12:04;101092.78;;;15.55;100.00
24230;BME280;12362;50.004;8.006;2023-05-08T07:14:30;101082.84;;;15.47;100.00
24230;BME280;12362;50.004;8.006;2023-05-08T07:16:55;101080.94;;;15.19;100.00
24230;BME280;12362;50.004;8.006;2023-05-08T07:19:22;101078.50;;;15.32;100.00
24230;BME280;12362;50.004;8.006;2023-05-08T07:21:49;101085.09;;;15.52;100.00
24230;BME280;12362;50.004;8.006;2023-05-08T07:24:14;101081.53;;;15.69;100.00
24230;BME280;12362;50.004;8.006;2023-05-08T07:26:40;101078.16;;;15.67;100.00
24230;BME280;12362;50.004;8.006;2023-05-08T07:29:05;101085.31;;;15.49;100.00
24230;BME280;12362;50.004;8.006;2023-05-08T07:31:32;101087.09;;;15.63;100.00
24230;BME280;12362;50.004;8.006;2023-05-08T07:33:57;101082.50;;;15.52;100.00
24230;BME280;12362;50.004;8.006;2023-05-08T07:36:23;101085.50;;;15.16;100.00
24230;BME280;12362;50.004;8.006;2023-05-08T07:38:48;101096.66;;;15.35;100.00
24230;BME280;12362;50.004;8.006;2023-05-08T07:41:14;101098.69;;;15.59;100.00
24230;BME280;12362;50.004;8.006;2023-05-08T07:43:39;101093.91;;;15.81;100.00
24230;BME280;12362;50.004;8.006;2023-05-08T07:46:15;101095.63;;;15.66;100.00
24230;BME280;12362;50.004;8.006;2023-05-08T07:48:40;101097.13;;;15.70;100.00
24230;BME280;12362;50.004;8.006;2023-05-08T07:51:06;101097.47;;;15.64;100.00
24230;BME280;12362;50.004;8.006;2023-05-08T07:53:32;101099.63;;;15.58;100.00
24230;BME280;12362;50.004;8.006;2023-05-08T07:55:57;101104.03;;;15.57;100.00
24230;BME280;12362;50.004;8.006;2023-05-08T07:58:23;101103.13;;;15.43;100.00
24230;BME280;12362;50.004;8.006;2023-05-08T08:00:48;101104.50;;;15.19;100.00
24230;BME280;12362;50.004;8.006;2023-05-08T08:03:14;101105.94;;;15.09;100.00
24230;BME280;12362;50.004;8.006;2023-05-08T08:05:39;101096.88;;;14.99;100.00
24230;BME280;12362;50.004;8.006;2023-05-08T08:08:06;101103.13;;;15.12;100.00
24230;BME280;12362;50.004;8.006;2023-05-08T08:10:31;101090.47;;;15.36;100.00
24230;BME280;12362;50.004;8.006;2023-05-08T08:12:58;101089.44;;;15.38;100.00
24230;BME280;12362;50.004;8.006;2023-05-08T08:15:26;101104.34;;;15.67;100.00
24230;BME280;12362;50.004;8.006;2023-05-08T08:17:53;101098.63;;;16.04;100.00
24230;BME280;12362;50.004;8.006;2023-05-08T08:20:18;101095.91;;;16.05;100.00
24230;BME280;12362;50.004;8.006;2023-05-08T08:22:44;101105.25;;;15.95;100.00
24230;BME280;12362;50.004;8.006;2023-05-08T08:25:09;101101.22;;;16.18;100.00
24230;BME280;12362;50.004;8.006;2023-05-08T08:27:35;101104.72;;;16.18;100.00
24230;BME280;12362;50.004;8.006;2023-05-08T08:30:01;101109.31;;;16.15;100.00
24230;BME280;12362;50.004;8.006;2023-05-08T08:32:26;101113.03;;;16.11;100.00
24230;BME280;12362;50.004;8.006;2023-05-08T08:34:52;101125.34;;;15.95;100.00
24230;BME280;12362;50.004;8.006;2023-05-08T08:37:17;101118.91;;;15.57;100.00
24230;BME280;12362;50.004;8.006;2023-05-08T08:39:43;101122.78;;;15.50;100.00
24230;BME280;12362;50.004;8.006;2023-05-08T08:42:08;101117.69;;;15.62;100.00
24230;BME280;12362;50.004;8.006;2023-05-08T08:44:34;101116.34;;;15.55;100.00
24230;BME280;12362;50.004;8.006;2023-05-08T08:47:33;101118.91;;;15.42;100.00
24230;BME280;12362;50.004;8.006;2023-05-08T08:50:01;101122.94;;;15.62;100.00
24230;BME280;12362;50.004;8.006;2023-05-08T08:55:14;101117.78;;;15.61;100.00
24230;BME280;12362;50.004;8.006;2023-05-08T08:57:47;101127.00;;;15.82;100.00
24230;BME280;12362;50.004;8.006;2023-05-08T09:00:16;101123.28;;;15.86;100.00
24230;BME280;12362;50.004;8.006;2023-05-08T09:02:42;101118.91;;;16.00;100.00
24230;BME280;12362;50.004;8.006;2023-05-08T09:05:08;101127.19;;;15.79;100.00
24230;BME280;12362;50.004;8.006;2023-05-08T09:07:34;101121.13;;;15.92;100.00
24230;BME280;12362;50.004;8.006;2023-05-08T09:10:00;101117.41;;;15.96;100.00
24230;BME280;12362;50.004;8.006;2023-05-08T09:12:28;101114.81;;;16.10;100.00
24230;BME280;12362;50.004;8.006;2023-05-08T09:14:54;101120.38;;;15.90;100.00
24230;BME280;12362;50.004;8.006;2023-05-08T09:17:54;101121.78;;;15.96;100.00
24230;BME280;12362;50.004;8.006;2023-05-08T09:20:20;101123.16;;;15.73;100.00
24230;BME280;12362;50.004;8.006;2023-05-08T09:22:48;101130.31;;;15.85;100.00
24230;BME280;12362;50.004;8.006;2023-05-08T09:25:13;101140.19;;;15.80;100.00
24230;BME280;12362;50.004;8.006;2023-05-08T09:27:39;101129.38;;;15.57;100.00
24230;BME280;12362;50.004;8.006;2023-05-08T09:32:33;101130.69;;;15.64;100.00
24230;BME280;12362;50.004;8.006;2023-05-08T09:34:59;101127.09;;;15.80;100.00
24230;BME280;12362;50.004;8.006;2023-05-08T09:37:26;101129.00;;;15.92;100.00
24230;BME280;12362;50.004;8.006;2023-05-08T09:39:53;101127.53;;;15.73;100.00
24230;BME280;12362;50.004;8.006;2023-05-08T09:42:19;101124.31;;;15.54;100.00
24230;BME280;12362;50.004;8.006;2023-05-08T09:44:52;101123.22;;;15.43;100.00
24230;BME280;12362;50.004;8.006;2023-05-08T09:47:22;101135.34;;;15.59;100.00
24230;BME280;12362;50.004;8.006;2023-05-08T09:50:07;101130.09;;;15.59;100.00
24230;BME280;12362;50.004;8.006;2023-05-08T09:52:35;101138.09;;;15.42;100.00
24230;BME280;12362;50.004;8.006;2023-05-08T09:55:06;101140.47;;;15.76;100.00
24230;BME280;12362;50.004;8.006;2023-05-08T09:57:35;101129.16;;;15.89;100.00
24230;BME280;12362;50.004;8.006;2023-05-08T10:00:10;101134.69;;;15.85;100.00
24230;BME280;12362;50.004;8.006;2023-05-08T10:02:39;101128.16;;;16.06;100.00
24230;BME280;12362;50.004;8.006;2023-05-08T10:05:25;101129.56;;;15.97;100.00
24230;BME280;12362;50.004;8.006;2023-05-08T10:07:52;101130.63;;;16.23;100.00
24230;BME280;12362;50.004;8.006;2023-05-08T10:10:28;101125.72;;;16.32;100.00
24230;BME280;12362;50.004;8.006;2023-05-08T10:12:56;101120.03;;;16.40;100.00
24230;BME280;12362;50.004;8.006;2023-05-08T10:15:23;101118.69;;;16.46;100.00
24230;BME280;12362;50.004;8.006;2023-05-08T10:17:54;101120.38;;;16.61;100.00
24230;BME280;12362;50.004;8.006;2023-05-08T10:20:24;101118.59;;;16.62;100.00
24230;BME280;12362;50.004;8.006;2023-05-08T10:22:55;101108.56;;;17.09;100.00
24230;BME280;12362;50.004;8.006;2023-05-08T10:25:21;101113.03;;;16.94;100.00
24230;BME280;12362;50.004;8.006;2023-05-08T10:27:54;101117.00;;;16.59;100.00
24230;BME280;12362;50.004;8.006;2023-05-08T10:30:24;101123.47;;;16.68;100.00
24230;BME280;12362;50.004;8.006;2023-05-08T10:32:51;101117.31;;;16.55;100.00
24230;BME280;12362;50.004;8.006;2023-05-08T10:35:20;101116.41;;;16.82;100.00
24230;BME280;12362;50.004;8.006;2023-05-08T10:37:47;101108.94;;;17.17;100.00
24230;BME280;12362;50.004;8.006;2023-05-08T10:40:16;101104.22;;;17.22;100.00
24230;BME280;12362;50.004;8.006;2023-05-08T10:42:44;101105.69;;;17.39;100.00
24230;BME280;12362;50.004;8.006;2023-05-08T10:45:10;101102.34;;;16.97;100.00
24230;BME280;12362;50.004;8.006;2023-05-08T10:48:07;101101.84;;;17.05;100.00
24230;BME280;12362;50.004;8.006;2023-05-08T10:53:30;101090.91;;;17.25;100.00
24230;BME280;12362;50.004;8.006;2023-05-08T10:55:58;101091.97;;;17.22;100.00
24230;BME280;12362;50.004;8.006;2023-05-08T10:58:29;101092.75;;;17.10;100.00
24230;BME280;12362;50.004;8.006;2023-05-08T11:06:05;101101.31;;;16.86;100.00
24230;BME280;12362;50.004;8.006;2023-05-08T11:08:31;101101.09;;;17.03;100.00
24230;BME280;12362;50.004;8.006;2023-05-08T11:16:01;101107.28;;;17.28;100.00
24230;BME280;12362;50.004;8.006;2023-05-08T11:18:27;101099.22;;;17.45;100.00
24230;BME280;12362;50.004;8.006;2023-05-08T11:21:04;101091.94;;;17.87;100.00
24230;BME280;12362;50.004;8.006;2023-05-08T11:23:35;101083.63;;;18.18;100.00
24230;BME280;12362;50.004;8.006;2023-05-08T11:26:18;101087.97;;;18.44;100.00
24230;BME280;12362;50.004;8.006;2023-05-08T11:28:55;101071.13;;;18.59;100.00
24230;BME280;12362;50.004;8.006;2023-05-08T11:31:21;101066.41;;;18.39;100.00
24230;BME280;12362;50.004;8.006;2023-05-08T11:33:48;101071.97;;;18.47;100.00
24230;BME280;12362;50.004;8.006;2023-05-08T11:38:40;101075.56;;;18.33;100.00
24230;BME280;12362;50.004;8.006;2023-05-08T11:41:20;101072.31;;;18.18;100.00
24230;BME280;12362;50.004;8.006;2023-05-08T11:44:04;101073.97;;;18.43;100.00
24230;BME280;12362;50.004;8.006;2023-05-08T11:46:42;101072.94;;;18.46;100.00
24230;BME280;12362;50.004;8.006;2023-05-08T11:49:13;101064.59;;;18.64;100.00
24230;BME280;12362;50.004;8.006;2023-05-08T11:51:42;101070.47;;;18.91;100.00
24230;BME280;12362;50.004;8.006;2023-05-08T11:54:11;101069.19;;;18.61;100.00
24230;BME280;12362;50.004;8.006;2023-05-08T11:56:37;101068.13;;;18.76;100.00
24230;BME280;12362;50.004;8.006;2023-05-08T11:59:04;101060.66;;;18.70;100.00
24230;BME280;12362;50.004;8.006;2023-05-08T12:01:31;101077.31;;;18.58;100.00
24230;BME280;12362;50.004;8.006;2023-05-08T12:04:10;101076.59;;;18.43;100.00
24230;BME280;12362;50.004;8.006;2023-05-08T12:06:37;101072.63;;;18.26;100.00
24230;BME280;12362;50.004;8.006;2023-05-08T12:09:17;101067.44;;;18.12;100.00
24230;BME280;12362;50.004;8.006;2023-05-08T12:11:44;101067.66;;;18.33;100.00
24230;BME280;12362;50.004;8.006;2023-05-08T12:14:11;101053.13;;;18.53;100.00
24230;BME280;12362;50.004;8.006;2023-05-08T12:16:38;101068.00;;;18.41;100.00
24230;BME280;12362;50.004;8.006;2023-05-08T12:19:09;101058.75;;;18.72;100.00
24230;BME280;12362;50.004;8.006;2023-05-08T12:21:35;101059.47;;;18.86;100.00
24230;BME280;12362;50.004;8.006;2023-05-08T12:24:04;101045.34;;;18.87;100.00
24230;BME280;12362;50.004;8.006;2023-05-08T12:26:34;101045.47;;;19.09;100.00
24230;BME280;12362;50.004;8.006;2023-05-08T12:29:00;101047.03;;;18.88;100.00
24230;BME280;12362;50.004;8.006;2023-05-08T12:31:25;101056.81;;;18.86;100.00
24230;BME280;12362;50.004;8.006;2023-05-08T12:33:52;101052.19;;;18.90;100.00
24230;BME280;12362;50.004;8.006;2023-05-08T12:36:18;101054.47;;;18.94;100.00
24230;BME280;12362;50.004;8.006;2023-05-08T12:38:43;101052.84;;;18.81;100.00
24230;BME280;12362;50.004;8.006;2023-05-08T12:41:09;101058.66;;;18.73;100.00
24230;BME280;12362;50.004;8.006;2023-05-08T12:43:36;101063.84;;;18.50;100.00
24230;BME280;12362;50.004;8.006;2023-05-08T12:46:03;101064.38;;;18.55;100.00
24230;BME280;12362;50.004;8.006;2023-05-08T12:48:29;101068.69;;;18.43;100.00
24230;BME280;12362;50.004;8.006;2023-05-08T12:51:00;101066.44;;;18.27;100.00
24230;BME280;12362;50.004;8.006;2023-05-08T12:53:29;101060.63;;;18.34;100.00
24230;BME280;12362;50.004;8.006;2023-05-08T12:55:56;101070.75;;;18.27;100.00
24230;BME280;12362;50.004;8.006;2023-05-08T12:58:27;101062.50;;;18.20;100.00
24230;BME280;12362;50.004;8.006;2023-05-08T13:01:10;101044.53;;;18.38;100.00
24230;BME280;12362;50.004;8.006;2023-05-08T13:03:39;101053.25;;;18.51;100.00
24230;BME280;12362;50.004;8.006;2023-05-08T13:06:05;101045.69;;;18.83;100.00
24230;BME280;12362;50.004;8.006;2023-05-08T13:08:33;101058.13;;;18.68;100.00
24230;BME280;12362;50.004;8.006;2023-05-08T13:11:00;101049.34;;;18.80;100.00
24230;BME280;12362;50.004;8.006;2023-05-08T13:13:30;101052.59;;;18.84;100.00
24230;BME280;12362;50.004;8.006;2023-05-08T13:16:05;101047.50;;;19.06;100.00
24230;BME280;12362;50.004;8.006;2023-05-08T13:18:33;101040.78;;;18.89;100.00
24230;BME280;12362;50.004;8.006;2023-05-08T13:21:02;101037.75;;;18.59;100.00
24230;BME280;12362;50.004;8.006;2023-05-08T13:23:28;101040.78;;;18.89;100.00
24230;BME280;12362;50.004;8.006;2023-05-08T13:25:54;101040.88;;;19.00;100.00
24230;BME280;12362;50.004;8.006;2023-05-08T13:28:19;101043.00;;;19.18;100.00
24230;BME280;12362;50.004;8.006;2023-05-08T13:30:45;101034.06;;;19.21;100.00
24230;BME280;12362;50.004;8.006;2023-05-08T13:33:10;101029.53;;;19.23;100.00
24230;BME280;12362;50.004;8.006;2023-05-08T13:35:37;101028.41;;;19.15;100.00